Time;durP1;ratioP1;P1;durP2;ratioP2;P2;SDS_P1;SDS_P2;PMS_P1;PMS_P2;Temp;Humidity;BMP_temperature;BMP_pressure;BME280_temperature;BME280_humidity;BME280_pressure;Samples;Min_cycle;Max_cycle;Signal;HPM_P1;HPM_P2
2022/06/30 00:01:58;;;;;;;18.50;14.07;;;;;;;21.21;94.73;98779.35;4368612;80;21053;-93
2022/06/30 00:08:00;;;;;;;17.02;14.40;;;;;;;21.09;94.92;98782.97;4405049;79;21037;-93
2022/06/30 00:14:03;;;;;;;22.52;16.40;;;;;;;21.17;95.30;98779.31;4396653;79;21017;-87
2022/06/30 00:20:06;;;;;;;19.62;16.30;;;;;;;21.16;95.26;98771.57;4414887;79;21703;-88
2022/06/30 00:26:07;;;;;;;21.07;15.38;;;;;;;20.99;95.20;98779.13;4399428;79;21361;-89
2022/06/30 00:32:09;;;;;;;17.55;15.28;;;;;;;21.05;95.91;98779.51;4406979;79;21018;-91
2022/06/30 00:38:10;;;;;;;19.15;16.90;;;;;;;21.11;96.01;98773.53;4424887;78;21083;-89
2022/06/30 00:44:15;;;;;;;23.87;17.37;;;;;;;21.15;95.76;98777.59;4426288;78;20980;-90
2022/06/30 00:50:17;;;;;;;21.33;17.15;;;;;;;21.00;96.23;98787.03;4421346;78;21046;-88
2022/06/30 00:56:21;;;;;;;23.83;17.20;;;;;;;21.01;96.10;98772.52;4423188;78;21052;-91
2022/06/30 01:02:23;;;;;;;19.27;16.70;;;;;;;20.84;96.47;98773.27;4428101;78;21079;-91
2022/06/30 01:08:30;;;;;;;20.97;18.27;;;;;;;20.80;96.92;98767.63;4431776;78;21029;-89
2022/06/30 01:14:34;;;;;;;22.30;18.55;;;;;;;20.79;97.02;98761.91;4427213;78;21937;-89
2022/06/30 01:20:35;;;;;;;19.55;17.17;;;;;;;20.70;97.15;98755.66;4419646;78;21034;-90
2022/06/30 01:26:36;;;;;;;21.82;16.23;;;;;;;20.62;97.50;98756.33;4341050;80;21034;-88
2022/06/30 01:32:38;;;;;;;18.17;15.05;;;;;;;20.61;97.98;98752.00;4314266;80;21090;-93
2022/06/30 01:38:39;;;;;;;19.95;17.48;;;;;;;20.67;97.97;98754.38;4377861;79;21034;-89
2022/06/30 01:44:41;;;;;;;20.97;18.57;;;;;;;20.64;97.74;98751.10;4378946;79;21034;-88
2022/06/30 01:50:42;;;;;;;20.17;17.30;;;;;;;20.50;98.07;98749.55;4389130;79;20993;-92
2022/06/30 01:56:44;;;;;;;22.77;18.98;;;;;;;20.51;98.63;98751.12;4376618;79;21013;-90
2022/06/30 02:02:48;;;;;;;24.87;19.60;;;;;;;20.52;98.53;98749.89;4387198;79;21524;-88
2022/06/30 02:08:49;;;;;;;21.65;19.23;;;;;;;20.47;98.72;98746.91;4382653;79;21069;-90
2022/06/30 02:14:51;;;;;;;19.27;16.00;;;;;;;20.35;98.65;98744.29;4386331;79;21037;-90
2022/06/30 02:20:54;;;;;;;17.20;15.50;;;;;;;20.23;98.79;98744.45;4372405;79;21401;-88
2022/06/30 02:26:56;;;;;;;19.00;16.70;;;;;;;20.25;99.23;98745.39;4342264;79;21057;-89
2022/06/30 02:32:57;;;;;;;20.12;17.70;;;;;;;20.33;99.13;98750.90;4340241;79;21139;-89
2022/06/30 02:38:59;;;;;;;20.80;17.65;;;;;;;20.31;99.10;98741.45;4388755;79;21615;-89
2022/06/30 02:45:01;;;;;;;20.35;17.07;;;;;;;20.27;99.13;98740.17;4354119;79;21054;-94
2022/06/30 02:51:03;;;;;;;21.85;19.15;;;;;;;20.18;99.24;98746.42;4373129;79;21027;-89
2022/06/30 02:57:05;;;;;;;22.52;18.35;;;;;;;20.16;99.27;98741.91;4372549;79;21029;-91
2022/06/30 03:03:06;;;;;;;16.30;14.50;;;;;;;20.04;99.35;98743.27;4374137;79;21069;-87
2022/06/30 03:09:08;;;;;;;25.97;20.57;;;;;;;19.98;99.72;98743.02;4228864;79;89590;-89
2022/06/30 03:15:10;;;;;;;18.82;16.87;;;;;;;19.93;99.32;98742.81;4183210;83;21197;-89
2022/06/30 03:21:14;;;;;;;18.30;16.40;;;;;;;19.84;99.82;98738.53;4188045;83;21101;-90
2022/06/30 03:27:15;;;;;;;17.25;14.25;;;;;;;19.86;100.00;98733.28;4185104;83;21085;-88
2022/06/30 03:33:18;;;;;;;20.25;17.55;;;;;;;19.96;100.00;98737.16;4189398;83;21149;-88
2022/06/30 03:39:20;;;;;;;19.77;16.77;;;;;;;20.01;100.00;98747.69;4179027;83;21122;-89
2022/06/30 03:45:21;;;;;;;20.80;17.05;;;;;;;20.08;100.00;98755.03;4182954;83;21046;-87
2022/06/30 03:51:24;;;;;;;23.35;18.90;;;;;;;20.13;100.00;98760.05;4187891;83;21121;-92
2022/06/30 03:57:25;;;;;;;22.22;17.77;;;;;;;20.20;100.00;98762.02;4188262;83;21066;-88
2022/06/30 04:03:28;;;;;;;19.17;17.02;;;;;;;20.27;100.00;98774.92;4182620;83;21718;-89
2022/06/30 04:09:30;;;;;;;19.25;15.35;;;;;;;20.28;100.00;98778.48;4187459;83;21085;-88
2022/06/30 04:15:32;;;;;;;17.90;14.47;;;;;;;20.32;100.00;98773.58;4185725;83;21114;-91
2022/06/30 04:21:33;;;;;;;15.85;14.20;;;;;;;20.36;100.00;98768.07;4202232;82;21081;-88
2022/06/30 04:27:35;;;;;;;19.82;15.55;;;;;;;20.45;100.00;98774.36;4178089;83;21403;-88
2022/06/30 04:33:36;;;;;;;17.02;15.10;;;;;;;20.56;100.00;98771.42;4180397;83;21113;-91
2022/06/30 04:39:38;;;;;;;16.80;14.45;;;;;;;20.60;100.00;98769.29;4167895;84;21101;-88
2022/06/30 04:45:39;;;;;;;19.75;16.27;;;;;;;20.68;100.00;98772.61;4172306;84;22087;-88
2022/06/30 04:51:42;;;;;;;18.10;15.38;;;;;;;20.78;100.00;98783.38;4170435;84;21636;-88
2022/06/30 04:57:44;;;;;;;17.52;15.43;;;;;;;20.88;100.00;98782.86;4177752;84;21054;-88
2022/06/30 05:03:46;;;;;;;16.75;14.73;;;;;;;21.00;100.00;98793.98;4175462;84;21027;-88
2022/06/30 05:09:50;;;;;;;18.55;16.10;;;;;;;21.08;100.00;98804.29;4171382;83;21113;-89
2022/06/30 05:15:52;;;;;;;18.52;14.25;;;;;;;21.14;100.00;98806.03;4151099;84;21585;-89
2022/06/30 05:21:53;;;;;;;17.40;13.72;;;;;;;21.26;100.00;98787.74;4151082;84;21046;-89
2022/06/30 05:27:54;;;;;;;22.17;16.70;;;;;;;21.43;100.00;98787.12;4149690;84;21110;-93
2022/06/30 05:33:56;;;;;;;20.30;18.02;;;;;;;21.64;100.00;98786.97;4128215;83;21072;-91
2022/06/30 05:39:57;;;;;;;19.55;17.42;;;;;;;21.88;99.92;98777.56;4106025;84;21077;-90
2022/06/30 05:45:58;;;;;;;17.92;15.98;;;;;;;22.12;99.76;98787.75;4169594;83;21080;-91
2022/06/30 05:52:00;;;;;;;23.15;16.80;;;;;;;22.32;99.58;98780.39;4114225;84;22145;-91
2022/06/30 05:58:06;;;;;;;20.60;17.02;;;;;;;22.50;99.29;98777.69;4190881;83;21081;-88
2022/06/30 06:04:08;;;;;;;25.47;18.67;;;;;;;22.67;99.16;98774.22;4242453;82;21113;-91
2022/06/30 06:10:13;;;;;;;19.02;15.88;;;;;;;22.86;98.66;98773.03;4237505;82;21022;-93
2022/06/30 06:16:20;;;;;;;20.10;14.65;;;;;;;23.05;98.39;98786.39;4234691;82;21066;-90
2022/06/30 06:22:21;;;;;;;17.70;14.63;;;;;;;23.27;97.95;98789.86;4235405;82;21101;-91
2022/06/30 06:34:46;;;;;;;16.73;14.73;;;;;;;23.65;97.29;98803.36;4239680;82;21100;-91
2022/06/30 06:40:50;;;;;;;16.97;14.30;;;;;;;23.92;96.95;98800.50;4219554;82;21395;-90
2022/06/30 06:46:51;;;;;;;18.42;13.48;;;;;;;24.16;96.54;98802.20;4184163;83;21682;-89
2022/06/30 06:52:53;;;;;;;15.43;13.05;;;;;;;24.41;96.00;98787.81;4180685;83;21128;-88
2022/06/30 06:58:55;;;;;;;18.92;12.93;;;;;;;24.83;95.29;98794.00;4176274;83;21683;-91
2022/06/30 07:04:56;;;;;;;15.90;12.98;;;;;;;25.83;93.43;98792.79;4194989;83;21089;-89
2022/06/30 07:10:58;;;;;;;17.95;13.50;;;;;;;25.83;93.43;98792.79;4188918;82;21050;-90
2022/06/30 07:17:01;;;;;;;20.15;16.42;;;;;;;26.45;92.59;98793.98;4191934;83;21058;-90
2022/06/30 07:23:02;;;;;;;17.30;13.88;;;;;;;26.99;92.11;98795.33;4178064;83;21205;-95
2022/06/30 07:29:05;;;;;;;17.12;13.28;;;;;;;27.58;90.40;98803.02;4190104;83;21132;-91
2022/06/30 07:35:10;;;;;;;16.32;12.68;;;;;;;28.07;88.09;98804.05;4179949;83;22015;-90
2022/06/30 07:41:12;;;;;;;17.23;13.10;;;;;;;28.36;86.65;98797.53;4162466;83;21089;-93
2022/06/30 07:47:15;;;;;;;18.15;12.78;;;;;;;28.43;85.60;98793.49;4189642;83;21061;-90
2022/06/30 07:53:17;;;;;;;16.25;14.50;;;;;;;28.79;84.35;98803.39;4222040;82;21089;-91
2022/06/30 07:59:22;;;;;;;15.15;12.78;;;;;;;28.93;82.97;98794.63;4223696;82;21038;-93
2022/06/30 08:05:24;;;;;;;16.77;12.47;;;;;;;29.01;81.15;98802.75;4140660;84;22139;-90
2022/06/30 08:11:26;;;;;;;14.20;12.60;;;;;;;29.18;79.81;98801.47;4160611;84;22259;-91
2022/06/30 08:17:38;;;;;;;17.95;12.35;;;;;;;29.18;78.41;98801.47;4246306;82;21501;-89
2022/06/30 08:23:42;;;;;;;13.68;11.95;;;;;;;29.29;77.34;98794.48;4240424;82;21062;-89
2022/06/30 08:29:44;;;;;;;13.18;11.45;;;;;;;29.42;76.16;98794.14;4237367;82;21042;-91
2022/06/30 08:35:45;;;;;;;16.30;12.07;;;;;;;29.70;74.65;98788.61;4207573;83;21054;-90
2022/06/30 08:42:02;;;;;;;13.08;11.33;;;;;;;29.82;72.42;98792.36;4235266;82;21101;-92
2022/06/30 08:48:04;;;;;;;11.53;10.30;;;;;;;29.93;72.37;98794.45;4183754;83;21097;-91
2022/06/30 08:54:08;;;;;;;11.83;10.10;;;;;;;30.05;71.27;98788.30;4184391;84;21057;-90
2022/06/30 09:00:14;;;;;;;11.45;10.35;;;;;;;30.00;69.79;98800.35;4200579;83;21034;-92
2022/06/30 09:06:17;;;;;;;12.00;10.43;;;;;;;30.01;68.64;98784.95;4223734;83;21111;-90
2022/06/30 09:12:20;;;;;;;13.83;9.48;;;;;;;30.08;66.28;98783.68;4193505;83;21695;-91
2022/06/30 09:18:28;;;;;;;13.55;9.18;;;;;;;30.37;65.24;98781.78;4159059;84;21089;-90
2022/06/30 09:24:29;;;;;;;12.00;8.23;;;;;;;30.64;64.77;98775.98;4232972;83;21628;-90
2022/06/30 09:30:31;;;;;;;12.50;9.45;;;;;;;30.86;63.62;98773.92;4231735;82;21657;-91
2022/06/30 09:36:32;;;;;;;12.75;8.73;;;;;;;31.14;60.34;98771.78;4208226;83;21038;-91
2022/06/30 09:42:45;;;;;;;10.03;9.03;;;;;;;31.44;62.22;98759.21;4233828;83;21732;-89
2022/06/30 09:48:46;;;;;;;15.18;9.70;;;;;;;31.94;61.59;98749.80;4154607;84;21013;-91
2022/06/30 09:54:56;;;;;;;10.75;9.58;;;;;;;32.25;60.29;98753.54;4205846;83;21026;-90
2022/06/30 10:00:59;;;;;;;13.68;9.75;;;;;;;32.63;59.78;98742.53;4228836;82;21058;-91
2022/06/30 10:07:01;;;;;;;14.73;9.08;;;;;;;32.95;59.11;98732.14;4169663;84;21117;-91
2022/06/30 10:13:05;;;;;;;12.90;9.63;;;;;;;33.37;58.01;98732.03;4192704;84;21097;-91
2022/06/30 10:19:13;;;;;;;11.83;9.50;;;;;;;33.56;57.32;98722.13;4198456;84;21097;-90
2022/06/30 10:25:17;;;;;;;16.12;8.93;;;;;;;33.65;55.62;98718.89;4195512;84;21073;-91
2022/06/30 10:31:51;;;;;;;12.03;8.75;;;;;;;34.14;54.92;98720.96;4201705;84;21030;-91
2022/06/30 10:38:14;;;;;;;12.47;9.45;;;;;;;34.34;52.75;98722.45;4231013;82;21606;-90
2022/06/30 10:44:27;;;;;;;12.90;7.80;;;;;;;34.76;52.29;98712.26;4180167;84;21072;-90
2022/06/30 10:50:44;;;;;;;9.73;8.70;;;;;;;35.04;50.44;98708.11;4157472;84;21042;-89
2022/06/30 10:56:54;;;;;;;15.35;9.28;;;;;;;35.29;48.06;98700.84;4162087;84;21035;-89
2022/06/30 11:02:58;;;;;;;12.13;7.85;;;;;;;35.61;48.73;98696.54;4215946;83;21050;-90
2022/06/30 11:09:00;;;;;;;13.72;8.83;;;;;;;35.66;46.37;98689.92;4224422;83;21090;-91
2022/06/30 11:15:10;;;;;;;12.47;7.37;;;;;;;35.89;46.49;98688.13;4154983;84;21121;-91
2022/06/30 11:21:20;;;;;;;8.93;5.50;;;;;;;36.22;45.12;98686.52;4169900;84;21213;-89
2022/06/30 11:27:25;;;;;;;6.67;4.90;;;;;;;36.35;42.39;98679.34;4174931;84;21370;-90
2022/06/30 11:33:32;;;;;;;5.03;3.58;;;;;;;36.13;42.48;98673.52;4158437;84;21043;-94
2022/06/30 11:39:34;;;;;;;8.23;4.28;;;;;;;36.34;40.72;98670.67;4172633;84;21803;-92
2022/06/30 11:45:39;;;;;;;6.75;4.50;;;;;;;36.31;39.36;98663.25;4177069;84;21058;-92
2022/06/30 11:51:42;;;;;;;8.93;3.98;;;;;;;36.55;38.63;98654.96;4184795;84;21707;-92
2022/06/30 11:57:48;;;;;;;5.58;4.53;;;;;;;36.78;37.76;98648.09;4179068;84;21054;-90
2022/06/30 12:03:49;;;;;;;10.98;4.17;;;;;;;36.67;38.48;98640.48;4126517;84;21062;-92
2022/06/30 12:09:52;;;;;;;7.03;4.28;;;;;;;36.73;38.36;98633.30;4176177;84;21093;-92
2022/06/30 12:15:55;;;;;;;11.78;4.08;;;;;;;36.49;37.39;98626.62;4176585;84;21117;-91
2022/06/30 12:21:57;;;;;;;7.60;4.60;;;;;;;36.24;35.97;98613.39;4156239;84;21521;-89
2022/06/30 12:27:59;;;;;;;6.72;3.90;;;;;;;35.86;36.75;98607.30;4185200;84;21125;-91
2022/06/30 12:34:04;;;;;;;7.85;4.20;;;;;;;35.65;35.98;98603.00;4188959;84;21604;-90
2022/06/30 12:40:11;;;;;;;8.25;4.45;;;;;;;35.45;36.18;98595.87;4188924;83;21694;-89
2022/06/30 12:46:19;;;;;;;5.08;4.00;;;;;;;35.30;36.31;98596.44;4151751;84;21597;-90
2022/06/30 12:52:22;;;;;;;6.95;4.45;;;;;;;35.07;36.68;98596.84;4141731;84;21501;-91
2022/06/30 12:58:23;;;;;;;5.55;4.40;;;;;;;34.74;36.63;98601.80;4151593;84;21071;-90
2022/06/30 13:04:30;;;;;;;5.30;4.08;;;;;;;34.42;35.96;98601.95;4202821;83;21707;-90
2022/06/30 13:17:07;;;;;;;8.85;4.67;;;;;;;33.73;37.59;98577.88;4202686;83;21069;-90
2022/06/30 13:23:09;;;;;;;6.30;3.87;;;;;;;33.34;37.84;98557.97;4205572;83;21086;-91
2022/06/30 13:29:10;;;;;;;4.25;3.83;;;;;;;33.13;38.86;98555.60;4184832;83;21076;-91
2022/06/30 13:35:12;;;;;;;5.90;5.30;;;;;;;33.18;39.82;98560.44;4196742;83;21045;-89
2022/06/30 13:41:14;;;;;;;9.35;5.33;;;;;;;33.34;39.99;98563.64;4244120;82;21073;-90
2022/06/30 13:47:15;;;;;;;5.75;4.53;;;;;;;33.24;40.53;98581.61;4247505;82;21881;-90
2022/06/30 13:53:20;;;;;;;6.10;4.80;;;;;;;33.10;41.47;98587.88;4255948;82;21311;-89
2022/06/30 13:59:30;;;;;;;6.30;4.53;;;;;;;32.86;41.85;98572.97;4250619;82;21018;-89
2022/06/30 14:05:33;;;;;;;5.05;4.55;;;;;;;32.68;42.22;98568.84;4174982;84;21049;-91
2022/06/30 14:11:41;;;;;;;5.00;4.35;;;;;;;32.53;42.51;98575.59;4236428;82;21049;-90
2022/06/30 14:17:55;;;;;;;6.90;3.87;;;;;;;32.40;42.62;98579.76;4234976;82;21023;-89
2022/06/30 14:24:36;;;;;;;6.22;4.70;;;;;;;32.20;42.79;98585.86;4229716;83;21605;-89
2022/06/30 14:30:51;;;;;;;8.88;4.58;;;;;;;31.98;43.29;98583.92;4219552;82;21026;-89
2022/06/30 14:36:52;;;;;;;7.87;5.08;;;;;;;31.78;43.80;98572.36;4206694;82;21077;-91
2022/06/30 14:42:59;;;;;;;8.25;4.65;;;;;;;31.60;44.22;98561.73;4211978;82;21113;-91
2022/06/30 14:49:04;;;;;;;5.03;4.22;;;;;;;31.38;44.76;98557.67;4235707;82;21105;-89
2022/06/30 14:55:09;;;;;;;11.48;4.53;;;;;;;31.16;45.09;98551.52;4241495;82;21012;-90
2022/06/30 15:01:16;;;;;;;10.70;4.63;;;;;;;30.93;45.81;98552.19;4234494;82;21083;-89
2022/06/30 15:07:19;;;;;;;5.45;4.72;;;;;;;30.77;46.48;98558.69;4232564;82;22297;-90
2022/06/30 15:13:20;;;;;;;7.65;4.78;;;;;;;30.62;47.05;98558.23;4230628;82;21121;-90
2022/06/30 15:19:24;;;;;;;7.72;5.30;;;;;;;30.53;47.72;98572.00;4234565;82;21349;-89
2022/06/30 15:25:26;;;;;;;6.95;5.33;;;;;;;30.46;48.54;98569.73;4229905;82;21086;-90
2022/06/30 15:31:28;;;;;;;7.75;5.87;;;;;;;30.42;49.55;98564.34;4229573;82;21110;-88
2022/06/30 15:37:36;;;;;;;13.65;7.08;;;;;;;30.01;50.35;98562.00;4232953;82;21057;-92
2022/06/30 15:43:37;;;;;;;9.98;6.25;;;;;;;29.91;51.39;98558.56;4211942;82;21480;-90
2022/06/30 15:49:39;;;;;;;7.03;6.33;;;;;;;29.90;52.89;98571.12;4256785;82;22136;-89
2022/06/30 15:55:41;;;;;;;9.30;6.72;;;;;;;29.79;54.02;98577.55;4286449;80;21049;-91
2022/06/30 16:01:43;;;;;;;13.20;8.03;;;;;;;29.86;54.52;98570.63;4260430;82;21118;-90
2022/06/30 16:07:53;;;;;;;13.53;8.05;;;;;;;29.84;55.09;98558.44;4239742;82;21466;-89
2022/06/30 16:14:01;;;;;;;10.80;7.55;;;;;;;29.80;54.89;98551.53;4262067;82;21065;-91
2022/06/30 16:20:07;;;;;;;9.60;7.65;;;;;;;29.64;55.31;98555.91;4139405;80;10000142;-92
2022/06/30 16:26:09;;;;;;;8.33;7.50;;;;;;;29.47;55.49;98562.17;4257521;82;21711;-93
2022/06/30 16:32:11;;;;;;;9.00;7.42;;;;;;;29.32;55.58;98566.52;4256040;82;21055;-90
2022/06/30 16:38:13;;;;;;;19.17;8.30;;;;;;;29.19;55.90;98564.20;4254794;82;21082;-90
2022/06/30 16:44:15;;;;;;;13.65;8.38;;;;;;;29.02;56.40;98571.81;4226313;82;21093;-90
2022/06/30 16:50:17;;;;;;;8.60;7.72;;;;;;;28.80;56.72;98581.64;4226127;82;21089;-89
2022/06/30 16:56:19;;;;;;;10.45;8.28;;;;;;;28.65;56.93;98571.98;4228055;82;21066;-93
2022/06/30 17:02:22;;;;;;;21.57;8.95;;;;;;;28.58;57.27;98580.91;4222725;82;21608;-90
2022/06/30 17:08:24;;;;;;;12.03;8.38;;;;;;;28.40;57.67;98580.55;4225608;82;22063;-89
2022/06/30 17:14:25;;;;;;;12.43;9.30;;;;;;;28.23;57.71;98580.47;4199155;82;21121;-91
2022/06/30 17:20:28;;;;;;;10.60;7.90;;;;;;;28.13;58.34;98585.41;4109301;82;9999567;-89
2022/06/30 17:26:30;;;;;;;10.50;8.25;;;;;;;27.93;59.01;98585.52;4199721;82;21077;-91
2022/06/30 17:32:33;;;;;;;10.95;8.73;;;;;;;27.81;59.39;98590.91;4226542;82;21584;-90
2022/06/30 17:38:38;;;;;;;13.43;7.80;;;;;;;27.60;59.82;98603.67;4232046;82;21041;-91
2022/06/30 17:44:38;;;;;;;9.65;8.00;;;;;;;27.45;59.66;98616.31;4246211;82;21089;-90
2022/06/30 17:50:39;;;;;;;10.40;8.63;;;;;;;27.36;59.81;98620.71;4252248;82;21141;-90
2022/06/30 17:56:42;;;;;;;14.03;8.58;;;;;;;27.27;60.19;98614.61;4255304;82;21113;-91
2022/06/30 18:02:43;;;;;;;11.60;8.80;;;;;;;27.15;60.38;98612.94;4258838;82;21355;-90
2022/06/30 18:15:13;;;;;;;10.15;8.48;;;;;;;26.76;61.06;98587.09;4254514;82;21628;-89
2022/06/30 18:21:24;;;;;;;12.23;8.53;;;;;;;26.54;61.63;98569.34;4258672;82;21868;-90
2022/06/30 18:27:41;;;;;;;12.73;9.30;;;;;;;26.34;62.10;98558.75;4259007;83;21080;-90
2022/06/30 18:33:43;;;;;;;11.78;9.85;;;;;;;26.13;62.62;98561.55;4229363;82;21081;-90
2022/06/30 18:47:05;;;;;;;14.13;10.23;;;;;;;25.87;63.80;98576.70;4174771;83;21127;-90
2022/06/30 18:59:45;;;;;;;13.10;10.65;;;;;;;25.59;64.74;98588.12;4176986;83;21926;-89
2022/06/30 19:06:02;;;;;;;13.75;10.55;;;;;;;25.44;65.40;98597.93;4170584;83;21039;-89
2022/06/30 19:12:10;;;;;;;14.63;11.00;;;;;;;25.29;65.80;98605.52;4168095;85;21648;-89
2022/06/30 19:18:19;;;;;;;20.62;11.40;;;;;;;25.14;66.63;98603.34;4152228;83;21566;-90
2022/06/30 19:24:20;;;;;;;17.35;10.08;;;;;;;25.01;67.18;98609.09;4163227;83;22005;-88
2022/06/30 19:30:23;;;;;;;19.45;12.30;;;;;;;24.85;68.01;98620.13;4183492;83;21027;-90
2022/06/30 19:36:25;;;;;;;19.45;12.73;;;;;;;24.68;68.26;98625.23;4174820;83;21423;-89
2022/06/30 19:42:29;;;;;;;17.02;12.45;;;;;;;24.48;68.72;98622.39;4177418;83;21095;-88
2022/06/30 19:48:48;;;;;;;26.50;12.65;;;;;;;24.32;69.10;98625.59;4176425;83;21066;-90
2022/06/30 20:01:40;;;;;;;15.03;11.40;;;;;;;24.08;70.89;98621.24;4173797;83;21095;-90
2022/06/30 20:14:08;;;;;;;17.52;11.38;;;;;;;24.07;71.96;98626.05;4163037;83;21063;-89
2022/06/30 20:20:30;;;;;;;16.40;11.90;;;;;;;23.84;72.37;98624.58;4172820;83;21717;-90
2022/06/30 20:26:33;;;;;;;14.38;11.53;;;;;;;23.74;72.70;98628.67;4170158;83;21032;-89
2022/06/30 20:32:36;;;;;;;15.32;12.23;;;;;;;23.62;73.36;98619.23;4175567;83;21633;-89
2022/06/30 20:38:44;;;;;;;16.48;11.83;;;;;;;23.51;73.82;98616.17;4151685;83;21383;-90
2022/06/30 20:44:50;;;;;;;22.10;12.58;;;;;;;23.38;74.31;98623.98;4138193;83;21110;-93
2022/06/30 20:51:45;;;;;;;;;;;;;;;;;;;;;
2022/06/30 20:57:05;;;;;;;17.92;12.30;;;;;;;23.08;75.56;98629.13;4204386;82;20181;-90
2022/06/30 21:03:10;;;;;;;18.30;10.63;;;;;;;22.97;76.21;98630.22;4222405;81;21130;-90
2022/06/30 21:09:13;;;;;;;15.90;12.40;;;;;;;22.97;76.86;98630.97;4211718;82;21633;-89
2022/06/30 21:15:21;;;;;;;21.30;12.88;;;;;;;22.87;77.12;98634.23;4189460;82;21060;-89
2022/06/30 21:21:24;;;;;;;19.07;13.60;;;;;;;22.85;77.58;98640.90;4178744;82;21083;-89
2022/06/30 21:27:26;;;;;;;19.30;14.15;;;;;;;22.87;78.02;98643.40;4180666;82;21106;-93
2022/06/30 21:33:33;;;;;;;21.40;14.15;;;;;;;22.71;78.14;98642.30;4214993;82;21055;-91
2022/06/30 21:39:37;;;;;;;16.82;13.85;;;;;;;22.64;78.74;98627.28;4204828;82;21043;-91
2022/06/30 21:45:40;;;;;;;18.12;14.23;;;;;;;22.47;79.07;98633.58;4176272;82;21024;-91
2022/06/30 21:51:45;;;;;;;17.40;13.65;;;;;;;22.36;79.48;98623.49;4232185;81;21029;-89
2022/06/30 21:57:48;;;;;;;18.17;14.07;;;;;;;22.19;80.27;98627.80;4198470;82;21046;-90
2022/06/30 22:03:52;;;;;;;17.12;12.95;;;;;;;22.10;80.52;98623.59;4208402;82;21060;-92
2022/06/30 22:09:53;;;;;;;20.95;13.30;;;;;;;21.99;81.16;98626.80;4170297;83;21051;-90
2022/06/30 22:15:58;;;;;;;20.92;15.08;;;;;;;22.00;81.59;98637.34;4171686;83;21539;-89
2022/06/30 22:22:00;;;;;;;20.05;16.52;;;;;;;21.78;81.73;98638.03;4169803;82;21062;-89
2022/06/30 22:28:07;;;;;;;19.07;15.55;;;;;;;21.67;82.26;98629.43;4162049;84;21087;-89
2022/06/30 22:34:15;;;;;;;19.12;16.57;;;;;;;21.65;82.59;98624.17;4167329;84;21526;-89
2022/06/30 22:40:16;;;;;;;20.50;17.25;;;;;;;21.51;82.90;98629.69;4171581;83;21079;-90
2022/06/30 22:46:18;;;;;;;21.33;16.45;;;;;;;21.38;83.33;98633.16;4183297;83;21428;-88
2022/06/30 22:52:24;;;;;;;21.62;17.65;;;;;;;21.14;83.42;98629.92;4193555;83;21577;-91
2022/06/30 22:58:26;;;;;;;22.32;18.62;;;;;;;20.69;84.65;98615.02;4129502;84;21067;-90
2022/06/30 23:04:27;;;;;;;20.95;18.30;;;;;;;20.69;84.65;98615.02;4214734;82;21125;-90
2022/06/30 23:10:29;;;;;;;19.35;17.35;;;;;;;20.67;85.32;98634.15;4209933;82;21022;-94
2022/06/30 23:16:36;;;;;;;19.73;15.00;;;;;;;20.69;85.92;98635.13;4224179;82;21066;-90
2022/06/30 23:22:39;;;;;;;17.02;14.80;;;;;;;20.59;86.06;98646.77;4221255;82;21069;-91
2022/06/30 23:28:45;;;;;;;32.10;17.57;;;;;;;20.63;86.56;98652.19;4184569;82;21584;-91
2022/06/30 23:34:46;;;;;;;22.15;18.48;;;;;;;20.45;86.64;98654.21;4205458;82;21594;-90
2022/06/30 23:40:48;;;;;;;22.77;18.20;;;;;;;20.43;87.71;98658.05;4208282;82;21118;-92
2022/06/30 23:46:52;;;;;;;22.00;18.70;;;;;;;20.34;87.54;98668.30;4187874;82;21048;-90
2022/06/30 23:52:55;;;;;;;26.97;19.02;;;;;;;20.26;88.19;98666.37;4179208;83;21070;-89
2022/06/30 23:58:56;;;;;;;22.65;16.02;;;;;;;20.22;88.67;98655.96;4177792;83;22254;-90
